Time;durP1;ratioP1;P1;durP2;ratioP2;P2;SDS_P1;SDS_P2;PMS_P1;PMS_P2;Temp;Humidity;BMP_temperature;BMP_pressure;BME280_temperature;BME280_humidity;BME280_pressure;Samples;Min_cycle;Max_cycle;Signal;HPM_P1;HPM_P2
2022/12/07 00:01:42;;;;;;;19.95;5.20;;;3.40;99.90;;;;;;4934115;29;20020;-75
2022/12/07 00:04:11;;;;;;;12.43;4.88;;;3.50;99.90;;;;;;4933682;29;20036;-74
2022/12/07 00:06:42;;;;;;;18.02;5.82;;;2.70;99.90;;;;;;4932182;29;20023;-74
2022/12/07 00:09:15;;;;;;;11.20;4.80;;;3.40;99.90;;;;;;4933751;29;20031;-74
2022/12/07 00:11:41;;;;;;;12.60;6.65;;;3.20;99.90;;;;;;4933765;29;20111;-74
2022/12/07 00:14:11;;;;;;;10.93;4.80;;;3.30;99.90;;;;;;4932927;29;20040;-75
2022/12/07 00:16:37;;;;;;;14.85;5.40;;;;;;;;;;4933364;29;20024;-75
2022/12/07 00:19:04;;;;;;;11.68;5.55;;;3.30;99.90;;;;;;4933674;29;20019;-74
2022/12/07 00:21:32;;;;;;;14.02;5.05;;;3.30;99.90;;;;;;4933678;29;20566;-74
2022/12/07 00:23:58;;;;;;;12.88;5.82;;;3.30;99.90;;;;;;4933112;29;20027;-74
2022/12/07 00:26:29;;;;;;;12.40;6.95;;;3.40;99.90;;;;;;4932972;29;20059;-75
2022/12/07 00:28:57;;;;;;;18.42;6.63;;;3.40;99.90;;;;;;4933699;29;20032;-75
2022/12/07 00:31:26;;;;;;;16.75;5.43;;;3.40;99.90;;;;;;4933675;29;20480;-75
2022/12/07 00:33:52;;;;;;;9.98;5.45;;;;;;;;;;4933375;29;20098;-74
2022/12/07 00:36:20;;;;;;;16.80;5.53;;;3.40;99.90;;;;;;4932615;29;20400;-75
2022/12/07 00:38:46;;;;;;;15.65;7.53;;;3.60;99.90;;;;;;4933163;29;20098;-75
2022/12/07 00:41:17;;;;;;;17.02;6.20;;;3.90;99.90;;;;;;4932959;29;20087;-75
2022/12/07 00:43:44;;;;;;;6.47;5.07;;;3.70;99.90;;;;;;4932830;29;20028;-75
2022/12/07 00:46:10;;;;;;;10.30;5.25;;;3.60;99.90;;;;;;4932114;29;20393;-74
2022/12/07 00:48:36;;;;;;;12.77;6.03;;;3.70;99.90;;;;;;4932961;29;20391;-75
2022/12/07 00:51:03;;;;;;;16.25;6.97;;;3.60;99.90;;;;;;4933116;29;20027;-74
2022/12/07 00:53:29;;;;;;;11.80;5.03;;;3.50;99.90;;;;;;4932829;29;20087;-75
2022/12/07 00:55:56;;;;;;;12.25;5.45;;;;;;;;;;4932236;29;20067;-75
2022/12/07 00:58:22;;;;;;;19.70;5.43;;;3.40;99.90;;;;;;4932819;29;20075;-75
2022/12/07 01:00:49;;;;;;;13.88;5.10;;;;;;;;;;4932476;29;20066;-75
2022/12/07 01:03:16;;;;;;;10.93;4.03;;;3.50;99.90;;;;;;4932784;29;20071;-75
2022/12/07 01:05:50;;;;;;;12.20;6.10;;;3.90;99.90;;;;;;4932322;29;20032;-74
2022/12/07 01:08:15;;;;;;;15.63;6.00;;;3.20;99.90;;;;;;4932584;29;20035;-74
2022/12/07 01:10:41;;;;;;;18.63;4.82;;;3.00;99.90;;;;;;4932349;29;20519;-74
2022/12/07 01:13:07;;;;;;;13.30;6.22;;;;;;;;;;4931653;29;20079;-74
2022/12/07 01:15:33;;;;;;;11.55;5.47;;;;;;;;;;4931733;29;20424;-75
2022/12/07 01:17:59;;;;;;;14.38;5.95;;;;;;;;;;4932265;29;20038;-74
2022/12/07 01:20:24;;;;;;;18.08;5.97;;;3.20;99.90;;;;;;4932242;29;20031;-74
2022/12/07 01:22:50;;;;;;;18.15;5.03;;;;;;;;;;4932309;29;20482;-74
2022/12/07 01:25:16;;;;;;;15.40;6.68;;;3.00;99.90;;;;;;4931851;29;20034;-75
2022/12/07 01:27:42;;;;;;;12.13;5.00;;;2.90;99.90;;;;;;4931923;29;20504;-74
2022/12/07 01:30:09;;;;;;;13.70;4.75;;;2.90;99.90;;;;;;4930592;29;20019;-75
2022/12/07 01:32:35;;;;;;;;;;;3.00;99.90;;;;;;4933051;29;20028;-75
2022/12/07 01:35:00;;;;;;;11.68;5.40;;;2.90;99.90;;;;;;4931969;29;20013;-75
2022/12/07 01:37:26;;;;;;;15.10;5.40;;;;;;;;;;4931833;29;20028;-74
2022/12/07 01:39:52;;;;;;;14.80;4.28;;;3.00;99.90;;;;;;4931845;29;20035;-75
2022/12/07 01:42:18;;;;;;;15.15;6.30;;;3.00;99.90;;;;;;4932231;29;20422;-75
2022/12/07 01:45:18;;;;;;;11.90;5.93;;;2.80;99.90;;;;;;4930065;29;20415;-74
2022/12/07 01:47:54;;;;;;;15.57;5.85;;;3.60;99.90;;;;;;4931574;29;20370;-74
2022/12/07 01:50:21;;;;;;;27.23;8.13;;;3.00;99.90;;;;;;4932011;29;20066;-75
2022/12/07 01:52:50;;;;;;;15.75;5.43;;;2.90;99.90;;;;;;4931379;29;20593;-74
2022/12/07 01:55:16;;;;;;;8.80;4.28;;;2.90;99.90;;;;;;4931686;29;20056;-74
2022/12/07 01:57:47;;;;;;;13.05;5.35;;;3.00;99.90;;;;;;4931026;29;20032;-75
2022/12/07 02:00:13;;;;;;;11.57;5.50;;;;;;;;;;4931560;29;20378;-75
2022/12/07 02:03:02;;;;;;;10.10;4.90;;;3.00;99.90;;;;;;4931567;29;20480;-75
2022/12/07 02:05:28;;;;;;;9.38;5.97;;;;;;;;;;4931370;29;20038;-74
2022/12/07 02:07:56;;;;;;;9.88;4.40;;;3.10;99.90;;;;;;4930718;29;20020;-73
2022/12/07 02:10:28;;;;;;;15.95;5.57;;;3.10;99.90;;;;;;4931655;29;20382;-75
2022/12/07 02:13:12;;;;;;;15.90;6.07;;;;;;;;;;4931474;28;20648;-74
2022/12/07 02:16:05;;;;;;;12.75;5.35;;;3.20;99.90;;;;;;4930369;29;20640;-75
2022/12/07 02:18:59;;;;;;;19.00;5.78;;;3.20;99.90;;;;;;4931220;29;20084;-75
2022/12/07 02:21:55;;;;;;;15.02;6.25;;;3.10;99.90;;;;;;4931252;29;20027;-75
2022/12/07 02:24:21;;;;;;;7.95;4.97;;;;;;;;;;4931420;29;20027;-74
2022/12/07 02:27:03;;;;;;;14.48;5.65;;;;;;;;;;4930891;29;20032;-74
2022/12/07 02:29:40;;;;;;;13.82;5.65;;;3.00;99.90;;;;;;4931340;29;20162;-74
2022/12/07 02:32:21;;;;;;;11.85;5.28;;;3.00;99.90;;;;;;4924113;29;20019;-74
2022/12/07 02:34:47;;;;;;;10.73;5.80;;;;;;;;;;4931081;29;20032;-74
2022/12/07 02:37:22;;;;;;;11.55;5.75;;;3.10;99.90;;;;;;4931210;29;20042;-75
2022/12/07 02:40:01;;;;;;;15.30;6.07;;;3.10;99.90;;;;;;4930958;29;20036;-74
2022/12/07 02:42:40;;;;;;;6.57;5.22;;;3.20;99.90;;;;;;4931017;29;20032;-75
2022/12/07 02:45:08;;;;;;;15.90;7.55;;;3.00;99.90;;;;;;4930613;29;20094;-75
2022/12/07 02:47:35;;;;;;;14.90;6.45;;;3.30;99.90;;;;;;4930532;29;20028;-75
2022/12/07 02:50:04;;;;;;;18.75;6.25;;;3.10;99.90;;;;;;4919728;29;20032;-74
2022/12/07 02:52:30;;;;;;;12.00;5.80;;;3.10;99.90;;;;;;4929317;29;20130;-75
2022/12/07 02:54:56;;;;;;;17.20;6.68;;;;;;;;;;4930977;29;20138;-74
2022/12/07 02:57:31;;;;;;;11.00;5.78;;;3.60;99.90;;;;;;4930750;29;20036;-75
2022/12/07 03:00:13;;;;;;;8.13;5.90;;;3.40;99.90;;;;;;4931161;29;20027;-74
2022/12/07 03:02:56;;;;;;;12.07;5.80;;;3.30;99.90;;;;;;4931007;29;20060;-75
2022/12/07 03:05:49;;;;;;;9.10;4.35;;;3.20;99.90;;;;;;4930903;29;20028;-74
2022/12/07 03:08:28;;;;;;;9.05;4.72;;;3.40;99.90;;;;;;4931481;29;20478;-74
2022/12/07 03:11:22;;;;;;;8.93;4.88;;;3.40;99.90;;;;;;4934858;29;20476;-75
2022/12/07 03:14:08;;;;;;;11.23;6.05;;;3.10;99.90;;;;;;4919041;29;20052;-75
2022/12/07 03:16:41;;;;;;;16.27;6.70;;;3.10;99.90;;;;;;4935076;29;20110;-74
2022/12/07 03:19:19;;;;;;;13.23;4.57;;;3.10;99.90;;;;;;4934892;28;20114;-75
2022/12/07 03:21:51;;;;;;;14.98;6.53;;;3.20;99.90;;;;;;4934900;29;20490;-75
2022/12/07 03:24:24;;;;;;;15.20;5.10;;;3.10;99.90;;;;;;4934558;29;20024;-74
2022/12/07 03:27:01;;;;;;;18.30;5.43;;;3.00;99.90;;;;;;4934398;29;20083;-74
2022/12/07 03:29:33;;;;;;;14.98;5.35;;;3.20;99.90;;;;;;4934205;29;20098;-74
2022/12/07 03:32:12;;;;;;;13.18;5.97;;;3.20;99.90;;;;;;4934508;29;20050;-74
2022/12/07 03:34:53;;;;;;;18.52;6.15;;;3.20;99.90;;;;;;4934599;29;20039;-74
2022/12/07 03:37:36;;;;;;;10.68;5.45;;;3.10;99.90;;;;;;4934314;29;20023;-75
2022/12/07 03:40:14;;;;;;;8.93;3.97;;;3.20;99.90;;;;;;4933800;29;20028;-74
2022/12/07 03:42:40;;;;;;;8.55;4.05;;;3.20;99.90;;;;;;4934211;29;20028;-75
2022/12/07 03:45:06;;;;;;;14.00;6.38;;;3.10;99.90;;;;;;4933852;29;20071;-74
2022/12/07 03:47:42;;;;;;;14.38;6.38;;;3.20;99.90;;;;;;4933871;29;20039;-75
2022/12/07 03:50:15;;;;;;;15.88;4.65;;;3.20;99.90;;;;;;4933623;29;20035;-74
2022/12/07 03:53:13;;;;;;;9.48;4.88;;;3.20;99.90;;;;;;4934239;29;20067;-74
2022/12/07 03:55:43;;;;;;;9.48;4.03;;;3.20;99.90;;;;;;4933313;29;20051;-75
2022/12/07 03:58:17;;;;;;;10.93;5.22;;;3.20;99.90;;;;;;4933970;29;20739;-75
2022/12/07 04:00:44;;;;;;;10.95;4.65;;;3.40;99.90;;;;;;4933775;29;20541;-74
2022/12/07 04:03:11;;;;;;;9.60;5.57;;;3.30;99.90;;;;;;4933618;29;20119;-75
2022/12/07 04:05:38;;;;;;;9.73;4.38;;;3.40;99.90;;;;;;4933784;29;20036;-75
2022/12/07 04:08:04;;;;;;;12.43;5.00;;;3.50;99.90;;;;;;4933534;29;20042;-75
2022/12/07 04:10:30;;;;;;;11.68;5.07;;;;;;;;;;4932507;29;20557;-74
2022/12/07 04:12:56;;;;;;;13.90;4.95;;;3.20;99.90;;;;;;4933676;29;20143;-74
2022/12/07 04:15:22;;;;;;;14.27;4.75;;;;;;;;;;4933667;29;20031;-75
2022/12/07 04:17:48;;;;;;;10.80;5.32;;;;;;;;;;4963795;28;20524;-75
2022/12/07 04:20:14;;;;;;;17.70;6.85;;;;;;;;;;4933017;29;20036;-74
2022/12/07 04:22:40;;;;;;;11.05;4.75;;;3.40;99.90;;;;;;4933749;29;20030;-74
2022/12/07 04:25:06;;;;;;;13.65;5.63;;;3.30;99.90;;;;;;4933810;29;20401;-74
2022/12/07 04:27:31;;;;;;;12.95;6.35;;;3.10;99.90;;;;;;4931664;29;20020;-74
2022/12/07 04:29:57;;;;;;;8.35;5.78;;;;;;;;;;4933307;29;20028;-74
2022/12/07 04:32:24;;;;;;;11.10;4.93;;;3.30;99.90;;;;;;4933058;29;20573;-75
2022/12/07 04:34:49;;;;;;;12.82;4.55;;;3.30;99.90;;;;;;4933310;29;20031;-74
2022/12/07 04:37:17;;;;;;;13.05;4.80;;;;;;;;;;4933045;29;20031;-74
2022/12/07 04:39:44;;;;;;;10.70;5.53;;;3.20;99.90;;;;;;4933035;29;20028;-75
2022/12/07 04:42:10;;;;;;;11.68;5.10;;;;;;;;;;4933321;29;20062;-74
2022/12/07 04:44:36;;;;;;;14.35;5.03;;;3.90;99.90;;;;;;4963666;28;20447;-75
2022/12/07 04:47:02;;;;;;;8.60;4.75;;;3.30;99.90;;;;;;4932837;29;20027;-75
2022/12/07 04:49:28;;;;;;;9.10;5.25;;;;;;;;;;4933086;29;20465;-75
2022/12/07 04:51:54;;;;;;;8.68;5.00;;;3.40;99.90;;;;;;4932949;29;20031;-74
2022/12/07 04:54:20;;;;;;;12.52;4.75;;;3.20;99.90;;;;;;4933066;29;20051;-74
2022/12/07 04:56:46;;;;;;;12.57;5.45;;;;;;;;;;4932730;29;20024;-74
2022/12/07 04:59:13;;;;;;;12.15;4.65;;;3.40;99.90;;;;;;4933464;29;20434;-74
2022/12/07 05:01:40;;;;;;;14.73;5.20;;;;;;;;;;4932399;29;20012;-75
2022/12/07 05:04:06;;;;;;;12.05;3.88;;;3.20;99.90;;;;;;4933072;29;20039;-75
2022/12/07 05:06:32;;;;;;;17.15;5.18;;;;;;;;;;4932286;29;20453;-75
2022/12/07 05:08:57;;;;;;;14.25;5.97;;;3.20;99.90;;;;;;4932659;29;20035;-75
2022/12/07 05:11:39;;;;;;;9.02;4.00;;;;;;;;;;4932450;29;20019;-75
2022/12/07 05:14:11;;;;;;;9.77;3.72;;;3.40;99.90;;;;;;4932252;29;20501;-74
2022/12/07 05:16:37;;;;;;;6.40;2.78;;;;;;;;;;4932341;29;20698;-75
2022/12/07 05:19:03;;;;;;;2.55;2.17;;;;;;;;;;4932906;29;20570;-75
2022/12/07 05:21:29;;;;;;;10.07;3.78;;;;;;;;;;4962960;28;20169;-73
2022/12/07 05:23:55;;;;;;;9.18;3.83;;;;;;;;;;4932654;29;20053;-74
2022/12/07 05:26:21;;;;;;;3.80;2.42;;;3.40;99.90;;;;;;4932467;29;20032;-75
2022/12/07 05:28:51;;;;;;;4.13;2.22;;;3.50;99.90;;;;;;4932445;29;20473;-74
2022/12/07 05:31:17;;;;;;;3.85;2.30;;;;;;;;;;4931380;29;20573;-74
2022/12/07 05:33:43;;;;;;;5.43;2.13;;;;;;;;;;4932104;29;20043;-74
2022/12/07 05:36:09;;;;;;;5.80;1.80;;;;;;;;;;4931847;29;20031;-74
2022/12/07 05:38:35;;;;;;;5.10;2.33;;;;;;;;;;4963126;28;20115;-74
2022/12/07 05:41:02;;;;;;;6.05;2.33;;;3.10;99.90;;;;;;4932011;29;20030;-74
2022/12/07 05:43:29;;;;;;;3.10;2.72;;;2.80;99.90;;;;;;4930407;29;20042;-74
2022/12/07 05:45:54;;;;;;;2.95;1.63;;;3.10;99.90;;;;;;4931518;29;20110;-74
2022/12/07 05:48:20;;;;;;;3.65;1.75;;;3.10;99.90;;;;;;4932056;29;20128;-74
2022/12/07 05:50:48;;;;;;;2.60;1.38;;;3.10;99.90;;;;;;4931631;29;20079;-75
2022/12/07 05:53:14;;;;;;;3.42;2.35;;;;;;;;;;4931991;29;20051;-75
2022/12/07 05:55:40;;;;;;;1.17;1.02;;;;;;;;;;4931314;29;20027;-74
2022/12/07 06:00:50;;;;;;;1.63;1.52;;;3.00;99.90;;;;;;4929698;29;20054;-74
2022/12/07 06:03:16;;;;;;;3.25;1.85;;;2.70;99.90;;;;;;4935148;29;20604;-74
2022/12/07 06:05:42;;;;;;;2.13;1.92;;;3.00;99.90;;;;;;4931764;29;20023;-74
2022/12/07 06:08:08;;;;;;;5.00;2.30;;;3.10;99.90;;;;;;4931833;29;20032;-74
2022/12/07 06:10:34;;;;;;;2.08;1.60;;;;;;;;;;4931992;29;20070;-74
2022/12/07 06:13:00;;;;;;;0.98;0.82;;;;;;;;;;4926839;29;20067;-74
2022/12/07 06:15:26;;;;;;;2.13;1.80;;;;;;;;;;4930914;29;20054;-75
2022/12/07 06:17:51;;;;;;;3.78;1.40;;;3.00;99.90;;;;;;4931175;29;20024;-75
2022/12/07 06:20:17;;;;;;;2.42;1.85;;;;;;;;;;4931646;29;20051;-74
2022/12/07 06:22:43;;;;;;;4.15;2.05;;;;;;;;;;4931194;29;20051;-74
2022/12/07 06:25:09;;;;;;;2.97;2.50;;;;;;;;;;4931572;29;20058;-75
2022/12/07 06:27:35;;;;;;;2.55;1.90;;;;;;;;;;4931734;29;20083;-75
2022/12/07 06:30:06;;;;;;;2.90;1.60;;;3.00;99.90;;;;;;4931039;29;20031;-75
2022/12/07 06:32:32;;;;;;;3.33;2.15;;;3.00;99.90;;;;;;4926110;29;20038;-74
2022/12/07 06:34:58;;;;;;;2.03;1.65;;;;;;;;;;4935843;29;20023;-74
2022/12/07 06:37:24;;;;;;;8.50;2.05;;;;;;;;;;4929714;29;20032;-74
2022/12/07 06:39:50;;;;;;;5.40;1.58;;;2.90;99.90;;;;;;4929836;29;20024;-74
2022/12/07 06:42:16;;;;;;;1.88;1.58;;;;;;;;;;4934681;29;20449;-74
2022/12/07 06:44:41;;;;;;;3.85;2.05;;;2.80;99.90;;;;;;4924517;29;20065;-75
2022/12/07 06:47:09;;;;;;;6.13;2.40;;;;;;;;;;4929580;29;20031;-74
2022/12/07 06:49:35;;;;;;;3.60;2.67;;;;;;;;;;4927178;28;20062;-74
2022/12/07 06:52:00;;;;;;;5.80;2.08;;;2.90;99.90;;;;;;4929331;29;20117;-74
2022/12/07 06:54:27;;;;;;;2.05;1.35;;;2.80;99.90;;;;;;4929728;29;20592;-77
2022/12/07 06:56:53;;;;;;;2.50;1.67;;;;;;;;;;4926946;29;20023;-79
2022/12/07 06:59:19;;;;;;;4.38;2.35;;;;;;;;;;4929851;29;20480;-78
2022/12/07 07:01:45;;;;;;;2.63;1.77;;;;;;;;;;4923649;29;20036;-78
2022/12/07 07:04:11;;;;;;;4.22;1.65;;;;;;;;;;4930279;29;20032;-78
2022/12/07 07:06:36;;;;;;;5.22;2.47;;;2.80;99.90;;;;;;4930132;29;20629;-77
2022/12/07 07:09:02;;;;;;;6.07;2.30;;;;;;;;;;4929907;29;20356;-78
2022/12/07 07:11:28;;;;;;;4.70;2.70;;;;;;;;;;4929949;29;20035;-78
2022/12/07 07:13:56;;;;;;;5.30;1.90;;;;;;;;;;4929339;29;20044;-78
2022/12/07 07:16:23;;;;;;;6.40;2.70;;;3.00;99.90;;;;;;4929614;29;20028;-78
2022/12/07 07:18:49;;;;;;;3.72;1.98;;;;;;;;;;4930151;29;20035;-78
2022/12/07 07:21:15;;;;;;;3.50;1.85;;;;;;;;;;4930258;29;20016;-77
2022/12/07 07:23:41;;;;;;;3.20;2.17;;;;;;;;;;4929122;29;20286;-78
2022/12/07 07:26:06;;;;;;;4.90;2.70;;;3.20;99.90;;;;;;4910844;29;20058;-77
2022/12/07 07:28:32;;;;;;;13.35;4.47;;;;;;;;;;4926986;29;20055;-76
2022/12/07 07:30:58;;;;;;;16.10;4.93;;;;;;;;;;4926692;29;20020;-78
2022/12/07 07:33:24;;;;;;;4.95;3.15;;;;;;;;;;4925689;29;20856;-74
2022/12/07 07:35:50;;;;;;;3.40;2.45;;;;;;;;;;4927603;29;20043;-73
2022/12/07 07:38:16;;;;;;;4.72;3.63;;;;;;;;;;4928258;29;20035;-73
2022/12/07 07:40:42;;;;;;;6.25;3.28;;;;;;;;;;4927771;29;20023;-74
2022/12/07 07:43:08;;;;;;;7.00;2.67;;;3.10;99.90;;;;;;4924885;29;20019;-74
2022/12/07 07:45:34;;;;;;;11.10;4.53;;;;;;;;;;4925529;29;20074;-74
2022/12/07 07:48:00;;;;;;;16.67;6.60;;;;;;;;;;4929050;29;20070;-75
2022/12/07 07:50:26;;;;;;;7.05;3.70;;;;;;;;;;4927354;29;20086;-75
2022/12/07 07:52:52;;;;;;;5.72;3.50;;;;;;;;;;4923069;29;20505;-73
2022/12/07 07:55:18;;;;;;;6.88;3.00;;;2.90;99.90;;;;;;4928832;29;20043;-73
2022/12/07 07:57:44;;;;;;;6.50;4.15;;;;;;;;;;4930907;29;20027;-73
2022/12/07 08:00:13;;;;;;;7.63;3.58;;;3.00;99.90;;;;;;4930275;29;21665;-73
2022/12/07 08:02:40;;;;;;;8.40;4.03;;;3.10;99.90;;;;;;4925519;29;20409;-76
2022/12/07 08:05:06;;;;;;;6.20;2.63;;;;;;;;;;4929632;29;20019;-74
2022/12/07 08:07:32;;;;;;;3.38;2.22;;;;;;;;;;4930859;29;20083;-75
2022/12/07 08:09:58;;;;;;;4.07;3.25;;;;;;;;;;4930736;29;20031;-76
2022/12/07 08:12:24;;;;;;;6.05;3.97;;;;;;;;;;4924374;29;20027;-74
2022/12/07 08:14:50;;;;;;;6.18;4.28;;;;;;;;;;4928611;29;20086;-75
2022/12/07 08:17:15;;;;;;;6.35;3.33;;;3.60;99.90;;;;;;4930737;29;20059;-75
2022/12/07 08:19:41;;;;;;;6.97;3.42;;;;;;;;;;4929738;29;20617;-74
2022/12/07 08:22:07;;;;;;;8.68;3.90;;;;;;;;;;4924188;29;20047;-73
2022/12/07 08:24:34;;;;;;;7.70;3.17;;;4.00;99.90;;;;;;4930460;29;20063;-74
2022/12/07 08:27:00;;;;;;;7.07;3.42;;;4.10;99.90;;;;;;4961072;28;20568;-72
2022/12/07 08:29:25;;;;;;;6.75;3.38;;;;;;;;;;4930282;29;20035;-73
2022/12/07 08:31:51;;;;;;;6.63;3.92;;;;;;;;;;4925878;29;20110;-73
2022/12/07 08:34:18;;;;;;;6.18;2.90;;;;;;;;;;4927866;29;20106;-74
2022/12/07 08:36:44;;;;;;;4.30;3.25;;;;;;;;;;4930067;29;20493;-73
2022/12/07 08:39:10;;;;;;;5.35;2.95;;;;;;;;;;4930680;29;20020;-72
2022/12/07 08:41:36;;;;;;;5.50;4.15;;;;;;;;;;4926254;29;20028;-74
2022/12/07 08:44:02;;;;;;;9.57;3.95;;;;;;;;;;4925482;29;20098;-72
2022/12/07 08:46:41;;;;;;;10.02;4.88;;;3.90;99.90;;;;;;4930125;29;20067;-74
2022/12/07 08:49:20;;;;;;;5.28;3.38;;;3.80;99.90;;;;;;4930881;29;20039;-75
2022/12/07 08:51:46;;;;;;;7.55;3.65;;;;;;;;;;4924468;29;20036;-73
2022/12/07 08:54:16;;;;;;;7.25;2.83;;;3.60;99.90;;;;;;4926632;29;20051;-72
2022/12/07 08:56:42;;;;;;;4.35;2.90;;;3.40;99.90;;;;;;4929587;29;20027;-72
2022/12/07 08:59:08;;;;;;;6.45;2.65;;;;;;;;;;4930258;29;20552;-74
2022/12/07 09:01:34;;;;;;;7.07;2.50;;;3.90;99.90;;;;;;4922870;28;20078;-74
2022/12/07 09:04:00;;;;;;;5.70;3.53;;;;;;;;;;4925401;29;20557;-74
2022/12/07 09:06:26;;;;;;;3.45;1.92;;;3.70;99.90;;;;;;4928869;29;20036;-73
2022/12/07 09:08:57;;;;;;;4.63;2.25;;;3.60;99.90;;;;;;4928651;29;20027;-73
2022/12/07 09:11:23;;;;;;;5.95;2.47;;;;;;;;;;4927362;29;20030;-75
2022/12/07 09:13:49;;;;;;;3.25;2.05;;;;;;;;;;4921280;29;20461;-77
2022/12/07 09:16:15;;;;;;;3.65;2.53;;;;;;;;;;4929441;29;20023;-76
2022/12/07 09:18:41;;;;;;;5.53;2.50;;;;;;;;;;4930322;29;20051;-77
2022/12/07 09:21:07;;;;;;;11.57;3.92;;;;;;;;;;4929172;29;20020;-77
2022/12/07 09:23:33;;;;;;;11.38;3.92;;;;;;;;;;4922707;29;20117;-74
2022/12/07 09:26:04;;;;;;;7.60;4.38;;;3.50;99.90;;;;;;4930325;29;20030;-75
2022/12/07 09:28:31;;;;;;;5.10;3.50;;;3.70;99.90;;;;;;4930339;29;20027;-73
2022/12/07 09:30:57;;;;;;;4.80;2.72;;;;;;;;;;4929200;29;20043;-75
2022/12/07 09:33:23;;;;;;;5.45;2.80;;;;;;;;;;4922315;29;20047;-76
2022/12/07 09:35:50;;;;;;;4.53;2.67;;;3.80;99.90;;;;;;4926939;29;20039;-75
2022/12/07 09:38:16;;;;;;;8.82;3.30;;;;;;;;;;4930622;29;20242;-75
2022/12/07 09:40:46;;;;;;;7.18;2.95;;;;;;;;;;4928610;29;20020;-75
2022/12/07 09:43:20;;;;;;;5.63;2.33;;;3.70;99.90;;;;;;4922003;29;20032;-75
2022/12/07 09:45:48;;;;;;;7.38;3.28;;;3.80;99.90;;;;;;4927731;29;20038;-75
2022/12/07 09:48:19;;;;;;;6.85;3.60;;;3.70;99.90;;;;;;4929354;29;20055;-76
2022/12/07 09:50:45;;;;;;;5.80;2.97;;;;;;;;;;4928401;29;20521;-79
2022/12/07 09:53:19;;;;;;;9.23;3.03;;;3.80;99.90;;;;;;4920439;29;20539;-79
2022/12/07 09:55:45;;;;;;;8.98;3.67;;;4.00;99.90;;;;;;4922763;29;20028;-78
2022/12/07 09:58:29;;;;;;;6.10;3.08;;;4.40;99.90;;;;;;4928934;29;20032;-74
2022/12/07 10:01:19;;;;;;;11.52;5.47;;;3.90;99.90;;;;;;4922640;29;20042;-74
2022/12/07 10:04:21;;;;;;;10.18;4.32;;;3.90;99.90;;;;;;4920684;28;20054;-74
2022/12/07 10:06:47;;;;;;;8.52;3.40;;;4.00;99.90;;;;;;4856880;29;20033;-73
2022/12/07 10:09:15;;;;;;;7.93;4.10;;;3.90;99.90;;;;;;4857932;29;20037;-73
2022/12/07 10:12:03;;;;;;;9.75;4.07;;;3.90;99.90;;;;;;4854605;29;20278;-75
2022/12/07 10:14:30;;;;;;;8.75;4.50;;;3.90;99.90;;;;;;4860978;29;20045;-73
2022/12/07 10:16:56;;;;;;;;;;;3.90;99.90;;;;;;4858976;29;20041;-73
2022/12/07 10:19:33;;;;;;;9.88;5.28;;;3.90;99.90;;;;;;4859273;29;19907;-73
2022/12/07 10:22:00;;;;;;;12.18;5.82;;;4.00;99.90;;;;;;4852232;29;20029;-73
2022/12/07 10:24:26;;;;;;;14.27;5.82;;;;;;;;;;4858886;29;20033;-72
2022/12/07 10:26:53;;;;;;;12.27;5.03;;;4.00;99.90;;;;;;4859661;29;20040;-74
2022/12/07 10:29:19;;;;;;;15.43;5.75;;;;;;;;;;4859620;29;20564;-74
2022/12/07 10:31:46;;;;;;;8.25;4.32;;;4.10;99.90;;;;;;4858068;29;20046;-74
2022/12/07 10:34:26;;;;;;;9.85;3.58;;;4.20;99.90;;;;;;4848607;29;20132;-75
2022/12/07 10:36:53;;;;;;;6.63;3.67;;;4.20;99.90;;;;;;4866242;29;20572;-72
2022/12/07 10:39:20;;;;;;;;;;;4.20;99.90;;;;;;4861433;29;20583;-79
2022/12/07 10:42:01;;;;;;;19.35;7.35;;;1.70;99.90;;;;;;4873635;29;20360;-74
2022/12/07 10:44:32;;;;;;;34.35;12.13;;;4.20;99.90;;;;;;4927807;29;20024;-75
2022/12/07 10:47:20;;;;;;;23.35;7.90;;;4.20;99.90;;;;;;4926111;29;20111;-75
2022/12/07 10:49:48;;;;;;;;;;;4.30;99.90;;;;;;4928962;29;20039;-77
2022/12/07 10:52:30;;;;;;;11.38;3.45;;;4.20;99.90;;;;;;4918388;29;19915;-77
2022/12/07 10:55:14;;;;;;;28.58;10.55;;;;;;;;;;4927662;29;20058;-76
2022/12/07 10:57:51;;;;;;;38.47;13.10;;;4.40;99.90;;;;;;4928967;29;20020;-77
2022/12/07 11:00:32;;;;;;;18.92;7.60;;;5.00;99.90;;;;;;4928052;29;20067;-76
2022/12/07 11:03:41;;;;;;;25.85;8.15;;;4.50;99.90;;;;;;4919654;29;20549;-73
2022/12/07 11:06:51;;;;;;;18.83;7.95;;;4.40;99.90;;;;;;4920732;29;20086;-74
2022/12/07 11:09:39;;;;;;;11.27;4.72;;;4.50;99.90;;;;;;4873151;29;20020;-74
2022/12/07 11:12:23;;;;;;;7.80;4.07;;;4.40;99.90;;;;;;4874846;29;20024;-73
2022/12/07 11:15:12;;;;;;;5.97;3.05;;;4.30;99.90;;;;;;4870912;29;20052;-73
2022/12/07 11:18:03;;;;;;;4.47;3.30;;;4.40;99.90;;;;;;4875702;29;20067;-73
2022/12/07 11:20:56;;;;;;;3.85;3.25;;;4.30;99.90;;;;;;4878798;29;20593;-73
2022/12/07 11:23:54;;;;;;;8.52;3.65;;;4.30;99.90;;;;;;4863313;29;20041;-75
2022/12/07 11:26:37;;;;;;;6.60;3.42;;;4.50;99.90;;;;;;4879548;29;20048;-77
2022/12/07 11:29:05;;;;;;;10.48;4.00;;;3.90;99.90;;;;;;4869696;29;20266;-75
2022/12/07 11:32:12;;;;;;;7.07;4.50;;;3.40;99.90;;;;;;4870842;29;20189;-77
2022/12/07 11:34:38;;;;;;;7.57;4.10;;;;;;;;;;4871665;29;20129;-76
2022/12/07 11:37:23;;;;;;;11.57;4.40;;;4.60;99.90;;;;;;4888548;29;20547;-76
2022/12/07 11:39:49;;;;;;;5.68;3.90;;;;;;;;;;4898303;29;20032;-76
2022/12/07 11:42:24;;;;;;;3.75;2.70;;;4.50;99.90;;;;;;4921782;29;20645;-76
2022/12/07 11:45:09;;;;;;;4.78;3.42;;;4.50;99.90;;;;;;4929911;29;20031;-76
2022/12/07 11:47:49;;;;;;;9.18;4.45;;;4.50;99.90;;;;;;4930691;29;20074;-76
2022/12/07 11:50:26;;;;;;;5.72;3.70;;;4.50;99.90;;;;;;4930325;29;20035;-76
2022/12/07 11:52:52;;;;;;;17.15;3.83;;;;;;;;;;4918495;29;20031;-76
2022/12/07 11:55:24;;;;;;;8.57;4.18;;;4.50;99.90;;;;;;4932900;29;20416;-76
2022/12/07 11:57:56;;;;;;;5.80;2.92;;;5.20;99.90;;;;;;4928702;29;20031;-75
2022/12/07 12:00:23;;;;;;;9.18;3.47;;;;;;;;;;4927734;29;20516;-74
2022/12/07 12:02:48;;;;;;;7.57;3.58;;;;;;;;;;4919878;29;20024;-74
2022/12/07 12:05:17;;;;;;;16.60;5.57;;;4.50;99.90;;;;;;4930912;29;20038;-73
2022/12/07 12:07:46;;;;;;;7.30;4.50;;;4.70;99.90;;;;;;4929922;29;20023;-73
2022/12/07 12:10:36;;;;;;;9.48;4.10;;;4.50;99.90;;;;;;4931136;29;20023;-72
2022/12/07 12:13:14;;;;;;;12.88;4.32;;;4.90;99.90;;;;;;4922516;29;20529;-73
2022/12/07 12:16:07;;;;;;;11.05;5.38;;;4.80;99.90;;;;;;4929572;29;20059;-73
2022/12/07 12:18:38;;;;;;;14.85;3.92;;;5.30;99.90;;;;;;4931474;29;20121;-73
2022/12/07 12:21:15;;;;;;;10.70;3.70;;;4.90;99.90;;;;;;4931717;29;20493;-73
2022/12/07 12:23:56;;;;;;;11.75;4.35;;;4.80;99.90;;;;;;4933417;28;20038;-72
2022/12/07 12:26:25;;;;;;;13.75;4.53;;;4.70;99.90;;;;;;4929899;29;20027;-74
2022/12/07 12:28:56;;;;;;;16.65;6.50;;;3.80;99.90;;;;;;4931355;29;20028;-72
2022/12/07 12:31:22;;;;;;;7.43;2.95;;;;;;;;;;4930419;29;20031;-73
2022/12/07 12:33:50;;;;;;;7.47;3.58;;;4.70;99.90;;;;;;4922400;29;20063;-73
2022/12/07 12:36:16;;;;;;;9.98;4.53;;;;;;;;;;4929471;29;20485;-73
2022/12/07 12:39:13;;;;;;;10.45;5.57;;;4.20;99.90;;;;;;4931831;29;20030;-72
2022/12/07 12:41:41;;;;;;;13.38;5.18;;;;;;;;;;4924410;29;20034;-74
2022/12/07 12:44:17;;;;;;;7.43;4.00;;;4.60;99.90;;;;;;4923646;29;20082;-76
2022/12/07 12:47:20;;;;;;;25.33;6.97;;;4.60;99.90;;;;;;4963588;28;20023;-75
2022/12/07 12:50:15;;;;;;;21.42;8.00;;;4.50;99.90;;;;;;4923063;29;20044;-71
2022/12/07 12:52:41;;;;;;;10.57;4.80;;;;;;;;;;4918960;29;20031;-72
2022/12/07 12:55:07;;;;;;;5.93;3.33;;;;;;;;;;4929834;29;20058;-72
2022/12/07 12:57:33;;;;;;;15.57;4.13;;;;;;;;;;4928587;29;20024;-71
2022/12/07 13:00:03;;;;;;;8.45;3.17;;;4.50;99.90;;;;;;4929394;29;20791;-71
2022/12/07 13:02:38;;;;;;;11.05;4.50;;;4.50;99.90;;;;;;4914901;29;20497;-71
2022/12/07 13:05:07;;;;;;;2.85;2.65;;;4.50;99.90;;;;;;4930135;29;20028;-72
2022/12/07 13:07:51;;;;;;;5.80;3.22;;;4.50;99.90;;;;;;4929561;29;20163;-74
2022/12/07 13:10:28;;;;;;;7.80;3.22;;;4.60;99.90;;;;;;4928006;29;20500;-74
2022/12/07 13:15:46;;;;;;;7.05;2.75;;;4.60;99.90;;;;;;4926296;29;20036;-75
2022/12/07 13:18:27;;;;;;;7.22;3.72;;;4.60;99.90;;;;;;4928669;29;20028;-72
2022/12/07 13:20:53;;;;;;;9.18;4.47;;;;;;;;;;4929259;29;20079;-71
2022/12/07 13:23:23;;;;;;;7.15;3.42;;;3.70;99.90;;;;;;4920538;29;20576;-72
2022/12/07 13:26:00;;;;;;;10.90;4.38;;;4.70;99.90;;;;;;4928953;29;20031;-73
2022/12/07 13:28:34;;;;;;;9.32;3.60;;;4.60;99.90;;;;;;4929612;29;20024;-73
2022/12/07 13:31:11;;;;;;;6.97;3.33;;;4.70;99.90;;;;;;4929038;29;20035;-74
2022/12/07 13:33:37;;;;;;;8.25;3.95;;;;;;;;;;4918927;29;20039;-76
2022/12/07 13:36:03;;;;;;;7.32;3.08;;;4.70;99.90;;;;;;4928762;29;20493;-74
2022/12/07 13:38:32;;;;;;;5.38;3.28;;;4.70;99.90;;;;;;4929134;29;20040;-79
2022/12/07 13:41:16;;;;;;;5.82;3.00;;;4.60;99.90;;;;;;4928293;29;20031;-74
2022/12/07 13:44:01;;;;;;;10.55;4.05;;;4.60;99.90;;;;;;4918415;29;20027;-75
2022/12/07 13:46:51;;;;;;;5.85;3.20;;;4.20;99.90;;;;;;4927248;29;20831;-73
2022/12/07 13:49:38;;;;;;;8.35;4.82;;;4.20;99.90;;;;;;4922601;29;21383;-72
2022/12/07 13:52:25;;;;;;;7.90;3.58;;;4.40;99.90;;;;;;4921275;29;20106;-73
2022/12/07 13:55:01;;;;;;;4.28;2.92;;;4.30;99.90;;;;;;4928390;29;20208;-77